sensor_id;sensor_type;location;lat;lon;timestamp;P1;durP1;ratioP1;P2;durP2;ratioP2
2760;SDS011;15420;48.636;9.798;2022-08-18T00:02:11;8.40;;;7.43;;
2760;SDS011;15420;48.636;9.798;2022-08-18T00:04:46;8.33;;;7.23;;
2760;SDS011;15420;48.636;9.798;2022-08-18T00:07:17;8.90;;;7.10;;
2760;SDS011;15420;48.636;9.798;2022-08-18T00:09:48;7.57;;;6.60;;
2760;SDS011;15420;48.636;9.798;2022-08-18T00:12:23;7.90;;;7.20;;
2760;SDS011;15420;48.636;9.798;2022-08-18T00:14:59;8.30;;;6.53;;
2760;SDS011;15420;48.636;9.798;2022-08-18T00:17:29;8.60;;;7.20;;
2760;SDS011;15420;48.636;9.798;2022-08-18T00:19:56;9.40;;;7.73;;
2760;SDS011;15420;48.636;9.798;2022-08-18T00:22:25;7.23;;;6.63;;
2760;SDS011;15420;48.636;9.798;2022-08-18T00:24:53;7.77;;;7.07;;
2760;SDS011;15420;48.636;9.798;2022-08-18T00:27:25;8.07;;;7.20;;
2760;SDS011;15420;48.636;9.798;2022-08-18T00:29:59;7.70;;;7.00;;
2760;SDS011;15420;48.636;9.798;2022-08-18T00:32:31;8.27;;;7.47;;
2760;SDS011;15420;48.636;9.798;2022-08-18T00:37:39;8.83;;;6.77;;
2760;SDS011;15420;48.636;9.798;2022-08-18T00:40:09;9.70;;;7.43;;
2760;SDS011;15420;48.636;9.798;2022-08-18T00:42:40;7.30;;;6.70;;
2760;SDS011;15420;48.636;9.798;2022-08-18T00:45:12;8.40;;;7.60;;
2760;SDS011;15420;48.636;9.798;2022-08-18T00:47:41;8.33;;;7.47;;
2760;SDS011;15420;48.636;9.798;2022-08-18T00:50:14;8.13;;;7.30;;
2760;SDS011;15420;48.636;9.798;2022-08-18T00:53:05;7.60;;;6.90;;
2760;SDS011;15420;48.636;9.798;2022-08-18T00:55:34;8.10;;;7.30;;
2760;SDS011;15420;48.636;9.798;2022-08-18T00:58:05;8.17;;;7.43;;
2760;SDS011;15420;48.636;9.798;2022-08-18T01:00:58;8.33;;;7.17;;
2760;SDS011;15420;48.636;9.798;2022-08-18T01:03:27;8.37;;;7.43;;
2760;SDS011;15420;48.636;9.798;2022-08-18T01:08:27;8.00;;;7.30;;
2760;SDS011;15420;48.636;9.798;2022-08-18T01:10:54;8.30;;;7.20;;
2760;SDS011;15420;48.636;9.798;2022-08-18T01:13:24;9.03;;;8.10;;
2760;SDS011;15420;48.636;9.798;2022-08-18T01:15:53;8.87;;;8.07;;
2760;SDS011;15420;48.636;9.798;2022-08-18T01:18:20;8.80;;;7.80;;
2760;SDS011;15420;48.636;9.798;2022-08-18T01:21:16;9.20;;;8.30;;
2760;SDS011;15420;48.636;9.798;2022-08-18T01:24:09;7.60;;;6.80;;
2760;SDS011;15420;48.636;9.798;2022-08-18T01:26:37;9.13;;;8.23;;
2760;SDS011;15420;48.636;9.798;2022-08-18T01:29:10;9.70;;;8.70;;
2760;SDS011;15420;48.636;9.798;2022-08-18T01:31:40;10.80;;;7.37;;
2760;SDS011;15420;48.636;9.798;2022-08-18T01:34:19;8.40;;;7.60;;
2760;SDS011;15420;48.636;9.798;2022-08-18T01:36:48;8.40;;;7.60;;
2760;SDS011;15420;48.636;9.798;2022-08-18T01:39:19;8.70;;;7.80;;
2760;SDS011;15420;48.636;9.798;2022-08-18T01:41:46;9.17;;;8.00;;
2760;SDS011;15420;48.636;9.798;2022-08-18T01:44:15;8.20;;;7.40;;
2760;SDS011;15420;48.636;9.798;2022-08-18T01:46:41;9.93;;;7.73;;
2760;SDS011;15420;48.636;9.798;2022-08-18T01:49:12;8.60;;;7.80;;
2760;SDS011;15420;48.636;9.798;2022-08-18T01:51:42;8.10;;;7.37;;
2760;SDS011;15420;48.636;9.798;2022-08-18T01:54:09;8.43;;;7.47;;
2760;SDS011;15420;48.636;9.798;2022-08-18T01:56:38;8.20;;;7.40;;
2760;SDS011;15420;48.636;9.798;2022-08-18T01:59:08;7.83;;;7.00;;
2760;SDS011;15420;48.636;9.798;2022-08-18T02:01:38;8.77;;;7.87;;
2760;SDS011;15420;48.636;9.798;2022-08-18T02:04:09;9.40;;;7.03;;
2760;SDS011;15420;48.636;9.798;2022-08-18T02:06:36;7.20;;;6.60;;
2760;SDS011;15420;48.636;9.798;2022-08-18T02:09:05;8.63;;;7.80;;
2760;SDS011;15420;48.636;9.798;2022-08-18T02:11:31;8.47;;;7.77;;
2760;SDS011;15420;48.636;9.798;2022-08-18T02:14:00;8.03;;;7.23;;
2760;SDS011;15420;48.636;9.798;2022-08-18T02:16:29;8.23;;;7.40;;
2760;SDS011;15420;48.636;9.798;2022-08-18T02:18:57;8.20;;;7.50;;
2760;SDS011;15420;48.636;9.798;2022-08-18T02:21:24;8.20;;;7.40;;
2760;SDS011;15420;48.636;9.798;2022-08-18T02:23:50;7.70;;;6.97;;
2760;SDS011;15420;48.636;9.798;2022-08-18T02:26:16;9.40;;;8.10;;
2760;SDS011;15420;48.636;9.798;2022-08-18T02:28:43;9.67;;;8.17;;
2760;SDS011;15420;48.636;9.798;2022-08-18T02:31:22;9.30;;;8.40;;
2760;SDS011;15420;48.636;9.798;2022-08-18T02:33:49;8.87;;;8.00;;
2760;SDS011;15420;48.636;9.798;2022-08-18T02:36:18;9.10;;;8.03;;
2760;SDS011;15420;48.636;9.798;2022-08-18T02:38:47;9.03;;;8.00;;
2760;SDS011;15420;48.636;9.798;2022-08-18T02:41:13;8.33;;;7.53;;
2760;SDS011;15420;48.636;9.798;2022-08-18T02:43:39;9.50;;;8.60;;
2760;SDS011;15420;48.636;9.798;2022-08-18T02:46:10;10.27;;;8.43;;
2760;SDS011;15420;48.636;9.798;2022-08-18T02:48:36;10.00;;;8.00;;
2760;SDS011;15420;48.636;9.798;2022-08-18T02:51:03;8.07;;;7.27;;
2760;SDS011;15420;48.636;9.798;2022-08-18T02:53:30;10.73;;;8.23;;
2760;SDS011;15420;48.636;9.798;2022-08-18T02:58:49;8.87;;;7.97;;
2760;SDS011;15420;48.636;9.798;2022-08-18T03:01:23;10.07;;;7.70;;
2760;SDS011;15420;48.636;9.798;2022-08-18T03:03:52;9.90;;;8.97;;
2760;SDS011;15420;48.636;9.798;2022-08-18T03:06:22;9.07;;;8.17;;
2760;SDS011;15420;48.636;9.798;2022-08-18T03:08:49;9.50;;;8.50;;
2760;SDS011;15420;48.636;9.798;2022-08-18T03:11:22;9.10;;;8.07;;
2760;SDS011;15420;48.636;9.798;2022-08-18T03:13:55;10.87;;;8.80;;
2760;SDS011;15420;48.636;9.798;2022-08-18T03:16:24;10.77;;;8.87;;
2760;SDS011;15420;48.636;9.798;2022-08-18T03:18:59;10.03;;;9.00;;
2760;SDS011;15420;48.636;9.798;2022-08-18T03:21:27;7.67;;;6.87;;
2760;SDS011;15420;48.636;9.798;2022-08-18T03:23:56;9.60;;;8.60;;
2760;SDS011;15420;48.636;9.798;2022-08-18T03:26:23;8.33;;;7.53;;
2760;SDS011;15420;48.636;9.798;2022-08-18T03:28:52;8.27;;;7.30;;
2760;SDS011;15420;48.636;9.798;2022-08-18T03:31:23;8.00;;;6.87;;
2760;SDS011;15420;48.636;9.798;2022-08-18T03:33:51;8.40;;;7.60;;
2760;SDS011;15420;48.636;9.798;2022-08-18T03:36:22;8.50;;;7.63;;
2760;SDS011;15420;48.636;9.798;2022-08-18T03:38:51;9.60;;;8.40;;
2760;SDS011;15420;48.636;9.798;2022-08-18T03:41:20;11.07;;;8.63;;
2760;SDS011;15420;48.636;9.798;2022-08-18T03:43:49;10.00;;;9.00;;
2760;SDS011;15420;48.636;9.798;2022-08-18T03:46:16;9.40;;;8.50;;
2760;SDS011;15420;48.636;9.798;2022-08-18T03:48:46;9.00;;;7.70;;
2760;SDS011;15420;48.636;9.798;2022-08-18T03:51:18;8.70;;;7.90;;
2760;SDS011;15420;48.636;9.798;2022-08-18T03:53:52;8.70;;;7.80;;
2760;SDS011;15420;48.636;9.798;2022-08-18T03:56:26;9.50;;;8.27;;
2760;SDS011;15420;48.636;9.798;2022-08-18T03:58:56;10.07;;;9.00;;
2760;SDS011;15420;48.636;9.798;2022-08-18T04:01:26;9.00;;;8.10;;
2760;SDS011;15420;48.636;9.798;2022-08-18T04:03:58;10.40;;;8.70;;
2760;SDS011;15420;48.636;9.798;2022-08-18T04:06:37;9.63;;;8.43;;
2760;SDS011;15420;48.636;9.798;2022-08-18T04:09:09;9.17;;;8.27;;
2760;SDS011;15420;48.636;9.798;2022-08-18T04:11:37;11.03;;;8.90;;
2760;SDS011;15420;48.636;9.798;2022-08-18T04:14:10;10.77;;;9.67;;
2760;SDS011;15420;48.636;9.798;2022-08-18T04:16:40;9.53;;;8.53;;
2760;SDS011;15420;48.636;9.798;2022-08-18T04:19:07;10.47;;;9.40;;
2760;SDS011;15420;48.636;9.798;2022-08-18T04:21:40;10.47;;;9.47;;
2760;SDS011;15420;48.636;9.798;2022-08-18T04:24:12;9.07;;;8.17;;
2760;SDS011;15420;48.636;9.798;2022-08-18T04:26:45;10.63;;;8.90;;
2760;SDS011;15420;48.636;9.798;2022-08-18T04:29:13;9.80;;;8.80;;
2760;SDS011;15420;48.636;9.798;2022-08-18T04:31:45;10.37;;;9.27;;
2760;SDS011;15420;48.636;9.798;2022-08-18T04:34:16;9.47;;;8.67;;
2760;SDS011;15420;48.636;9.798;2022-08-18T04:36:44;11.63;;;9.90;;
2760;SDS011;15420;48.636;9.798;2022-08-18T04:39:20;11.73;;;10.53;;
2760;SDS011;15420;48.636;9.798;2022-08-18T04:41:47;10.10;;;9.10;;
2760;SDS011;15420;48.636;9.798;2022-08-18T04:44:19;9.93;;;8.90;;
2760;SDS011;15420;48.636;9.798;2022-08-18T04:46:49;12.07;;;9.33;;
2760;SDS011;15420;48.636;9.798;2022-08-18T04:49:19;11.10;;;9.37;;
2760;SDS011;15420;48.636;9.798;2022-08-18T04:51:50;10.80;;;9.70;;
2760;SDS011;15420;48.636;9.798;2022-08-18T04:54:37;11.97;;;10.60;;
2760;SDS011;15420;48.636;9.798;2022-08-18T04:57:11;12.33;;;10.37;;
2760;SDS011;15420;48.636;9.798;2022-08-18T04:59:41;12.47;;;10.50;;
2760;SDS011;15420;48.636;9.798;2022-08-18T05:02:12;11.17;;;10.07;;
2760;SDS011;15420;48.636;9.798;2022-08-18T05:04:39;12.83;;;10.40;;
2760;SDS011;15420;48.636;9.798;2022-08-18T05:07:07;11.83;;;10.53;;
2760;SDS011;15420;48.636;9.798;2022-08-18T05:09:35;11.70;;;10.50;;
2760;SDS011;15420;48.636;9.798;2022-08-18T05:12:04;12.30;;;10.30;;
2760;SDS011;15420;48.636;9.798;2022-08-18T05:14:32;13.10;;;10.20;;
2760;SDS011;15420;48.636;9.798;2022-08-18T05:17:00;11.73;;;10.53;;
2760;SDS011;15420;48.636;9.798;2022-08-18T05:19:27;12.20;;;10.90;;
2760;SDS011;15420;48.636;9.798;2022-08-18T05:21:55;15.47;;;12.90;;
2760;SDS011;15420;48.636;9.798;2022-08-18T05:24:25;14.50;;;11.00;;
2760;SDS011;15420;48.636;9.798;2022-08-18T05:26:53;12.50;;;10.43;;
2760;SDS011;15420;48.636;9.798;2022-08-18T05:29:21;10.17;;;9.17;;
2760;SDS011;15420;48.636;9.798;2022-08-18T05:31:49;11.90;;;8.93;;
2760;SDS011;15420;48.636;9.798;2022-08-18T05:34:17;10.60;;;9.30;;
2760;SDS011;15420;48.636;9.798;2022-08-18T05:42:00;10.40;;;9.30;;
2760;SDS011;15420;48.636;9.798;2022-08-18T05:44:39;9.70;;;8.70;;
2760;SDS011;15420;48.636;9.798;2022-08-18T05:47:26;11.30;;;9.93;;
2760;SDS011;15420;48.636;9.798;2022-08-18T05:49:55;12.23;;;10.13;;
2760;SDS011;15420;48.636;9.798;2022-08-18T05:52:39;10.30;;;9.10;;
2760;SDS011;15420;48.636;9.798;2022-08-18T05:55:28;10.90;;;9.67;;
2760;SDS011;15420;48.636;9.798;2022-08-18T05:58:31;10.57;;;8.60;;
2760;SDS011;15420;48.636;9.798;2022-08-18T06:01:03;10.00;;;9.00;;
2760;SDS011;15420;48.636;9.798;2022-08-18T06:03:42;9.33;;;8.30;;
2760;SDS011;15420;48.636;9.798;2022-08-18T06:06:18;9.17;;;8.10;;
2760;SDS011;15420;48.636;9.798;2022-08-18T06:08:51;9.17;;;8.23;;
2760;SDS011;15420;48.636;9.798;2022-08-18T06:11:41;9.00;;;7.20;;
2760;SDS011;15420;48.636;9.798;2022-08-18T06:14:13;8.53;;;7.73;;
2760;SDS011;15420;48.636;9.798;2022-08-18T06:22:22;9.90;;;8.47;;
2760;SDS011;15420;48.636;9.798;2022-08-18T06:25:14;8.57;;;6.87;;
2760;SDS011;15420;48.636;9.798;2022-08-18T06:28:02;8.30;;;7.47;;
2760;SDS011;15420;48.636;9.798;2022-08-18T06:39:03;7.10;;;6.27;;
2760;SDS011;15420;48.636;9.798;2022-08-18T06:41:46;6.40;;;5.80;;
2760;SDS011;15420;48.636;9.798;2022-08-18T06:49:22;7.03;;;6.30;;
2760;SDS011;15420;48.636;9.798;2022-08-18T06:51:49;7.93;;;6.70;;
2760;SDS011;15420;48.636;9.798;2022-08-18T06:56:48;11.57;;;6.93;;
2760;SDS011;15420;48.636;9.798;2022-08-18T06:59:26;6.47;;;5.87;;
2760;SDS011;15420;48.636;9.798;2022-08-18T07:02:00;5.97;;;5.43;;
2760;SDS011;15420;48.636;9.798;2022-08-18T07:05:02;6.10;;;5.50;;
2760;SDS011;15420;48.636;9.798;2022-08-18T07:07:33;6.20;;;5.60;;
2760;SDS011;15420;48.636;9.798;2022-08-18T07:10:50;6.73;;;5.90;;
2760;SDS011;15420;48.636;9.798;2022-08-18T07:13:05;5.30;;;4.80;;
2760;SDS011;15420;48.636;9.798;2022-08-18T07:15:37;5.57;;;5.07;;
2760;SDS011;15420;48.636;9.798;2022-08-18T07:18:05;7.17;;;5.30;;
2760;SDS011;15420;48.636;9.798;2022-08-18T07:20:42;6.80;;;5.53;;
2760;SDS011;15420;48.636;9.798;2022-08-18T07:23:22;6.43;;;5.77;;
2760;SDS011;15420;48.636;9.798;2022-08-18T07:26:03;6.40;;;5.30;;
2760;SDS011;15420;48.636;9.798;2022-08-18T07:31:11;6.17;;;5.57;;
2760;SDS011;15420;48.636;9.798;2022-08-18T07:33:41;6.87;;;5.83;;
2760;SDS011;15420;48.636;9.798;2022-08-18T07:36:34;6.20;;;5.60;;
2760;SDS011;15420;48.636;9.798;2022-08-18T07:39:14;5.60;;;5.10;;
2760;SDS011;15420;48.636;9.798;2022-08-18T07:41:48;6.10;;;5.50;;
2760;SDS011;15420;48.636;9.798;2022-08-18T07:44:22;6.00;;;5.40;;
2760;SDS011;15420;48.636;9.798;2022-08-18T07:47:03;6.43;;;5.83;;
2760;SDS011;15420;48.636;9.798;2022-08-18T07:49:38;6.17;;;5.57;;
2760;SDS011;15420;48.636;9.798;2022-08-18T07:52:17;5.73;;;5.23;;
2760;SDS011;15420;48.636;9.798;2022-08-18T07:55:27;6.00;;;5.40;;
2760;SDS011;15420;48.636;9.798;2022-08-18T08:11:05;6.33;;;5.53;;
2760;SDS011;15420;48.636;9.798;2022-08-18T08:16:35;6.10;;;5.50;;
2760;SDS011;15420;48.636;9.798;2022-08-18T08:24:57;5.73;;;5.23;;
2760;SDS011;15420;48.636;9.798;2022-08-18T08:30:18;6.03;;;5.43;;
2760;SDS011;15420;48.636;9.798;2022-08-18T08:35:18;6.17;;;5.57;;
2760;SDS011;15420;48.636;9.798;2022-08-18T08:38:10;6.70;;;6.00;;
2760;SDS011;15420;48.636;9.798;2022-08-18T08:43:10;5.97;;;5.47;;
2760;SDS011;15420;48.636;9.798;2022-08-18T08:45:41;5.87;;;5.37;;
2760;SDS011;15420;48.636;9.798;2022-08-18T08:55:58;6.80;;;5.90;;
2760;SDS011;15420;48.636;9.798;2022-08-18T09:06:59;6.67;;;6.03;;
2760;SDS011;15420;48.636;9.798;2022-08-18T09:14:31;7.07;;;6.37;;
2760;SDS011;15420;48.636;9.798;2022-08-18T09:23:15;7.20;;;6.20;;
2760;SDS011;15420;48.636;9.798;2022-08-18T09:25:46;5.87;;;5.37;;
2760;SDS011;15420;48.636;9.798;2022-08-18T09:28:17;7.53;;;6.40;;
2760;SDS011;15420;48.636;9.798;2022-08-18T09:38:58;6.03;;;5.53;;
2760;SDS011;15420;48.636;9.798;2022-08-18T09:42:11;6.23;;;5.63;;
2760;SDS011;15420;48.636;9.798;2022-08-18T09:54:51;8.00;;;6.67;;
2760;SDS011;15420;48.636;9.798;2022-08-18T09:57:47;6.57;;;5.87;;
2760;SDS011;15420;48.636;9.798;2022-08-18T10:00:45;6.77;;;6.17;;
2760;SDS011;15420;48.636;9.798;2022-08-18T10:06:41;7.13;;;6.43;;
2760;SDS011;15420;48.636;9.798;2022-08-18T10:09:20;6.17;;;5.67;;
2760;SDS011;15420;48.636;9.798;2022-08-18T10:22:44;6.53;;;6.03;;
2760;SDS011;15420;48.636;9.798;2022-08-18T10:25:13;7.93;;;6.63;;
2760;SDS011;15420;48.636;9.798;2022-08-18T10:27:57;5.90;;;5.30;;
2760;SDS011;15420;48.636;9.798;2022-08-18T10:33:02;7.33;;;6.27;;
2760;SDS011;15420;48.636;9.798;2022-08-18T10:38:15;8.00;;;6.67;;
2760;SDS011;15420;48.636;9.798;2022-08-18T10:43:56;7.90;;;7.10;;
2760;SDS011;15420;48.636;9.798;2022-08-18T10:46:28;7.33;;;6.53;;
2760;SDS011;15420;48.636;9.798;2022-08-18T10:49:03;7.53;;;6.73;;
2760;SDS011;15420;48.636;9.798;2022-08-18T10:57:17;8.20;;;6.10;;
2760;SDS011;15420;48.636;9.798;2022-08-18T10:59:48;9.10;;;6.80;;
2760;SDS011;15420;48.636;9.798;2022-08-18T11:05:21;7.27;;;6.57;;
2760;SDS011;15420;48.636;9.798;2022-08-18T11:08:00;7.60;;;6.87;;
2760;SDS011;15420;48.636;9.798;2022-08-18T11:10:36;7.67;;;6.97;;
2760;SDS011;15420;48.636;9.798;2022-08-18T11:18:54;7.17;;;6.57;;
2760;SDS011;15420;48.636;9.798;2022-08-18T11:21:31;6.43;;;5.90;;
2760;SDS011;15420;48.636;9.798;2022-08-18T11:34:52;7.13;;;6.50;;
2760;SDS011;15420;48.636;9.798;2022-08-18T11:40:52;8.00;;;7.33;;
2760;SDS011;15420;48.636;9.798;2022-08-18T11:43:29;8.50;;;7.20;;
2760;SDS011;15420;48.636;9.798;2022-08-18T11:46:10;9.30;;;7.37;;
2760;SDS011;15420;48.636;9.798;2022-08-18T11:48:48;7.70;;;6.90;;
2760;SDS011;15420;48.636;9.798;2022-08-18T11:56:40;8.53;;;7.73;;
2760;SDS011;15420;48.636;9.798;2022-08-18T11:59:07;7.60;;;7.00;;
2760;SDS011;15420;48.636;9.798;2022-08-18T12:02:00;8.20;;;7.40;;
2760;SDS011;15420;48.636;9.798;2022-08-18T12:07:08;7.20;;;6.70;;
2760;SDS011;15420;48.636;9.798;2022-08-18T12:09:44;8.33;;;7.50;;
2760;SDS011;15420;48.636;9.798;2022-08-18T12:12:14;7.53;;;6.90;;
2760;SDS011;15420;48.636;9.798;2022-08-18T12:15:00;7.80;;;7.10;;
2760;SDS011;15420;48.636;9.798;2022-08-18T12:17:35;7.50;;;6.80;;
2760;SDS011;15420;48.636;9.798;2022-08-18T12:20:02;7.60;;;7.00;;
2760;SDS011;15420;48.636;9.798;2022-08-18T12:22:32;7.23;;;6.53;;
2760;SDS011;15420;48.636;9.798;2022-08-18T12:25:00;7.57;;;6.80;;
2760;SDS011;15420;48.636;9.798;2022-08-18T12:27:29;9.10;;;7.60;;
2760;SDS011;15420;48.636;9.798;2022-08-18T12:29:56;7.13;;;6.53;;
2760;SDS011;15420;48.636;9.798;2022-08-18T12:32:25;7.00;;;6.50;;
2760;SDS011;15420;48.636;9.798;2022-08-18T12:34:53;7.73;;;7.03;;
2760;SDS011;15420;48.636;9.798;2022-08-18T12:37:21;7.47;;;6.83;;
2760;SDS011;15420;48.636;9.798;2022-08-18T12:39:49;7.30;;;6.60;;
2760;SDS011;15420;48.636;9.798;2022-08-18T12:42:16;6.70;;;6.10;;
2760;SDS011;15420;48.636;9.798;2022-08-18T12:44:43;8.33;;;6.57;;
2760;SDS011;15420;48.636;9.798;2022-08-18T12:47:17;6.77;;;6.27;;
2760;SDS011;15420;48.636;9.798;2022-08-18T12:49:46;7.57;;;6.57;;
2760;SDS011;15420;48.636;9.798;2022-08-18T12:52:16;7.73;;;6.40;;
2760;SDS011;15420;48.636;9.798;2022-08-18T12:54:43;7.07;;;6.37;;
2760;SDS011;15420;48.636;9.798;2022-08-18T12:57:15;6.97;;;6.37;;
2760;SDS011;15420;48.636;9.798;2022-08-18T12:59:45;6.77;;;6.27;;
2760;SDS011;15420;48.636;9.798;2022-08-18T13:02:11;6.07;;;5.47;;
2760;SDS011;15420;48.636;9.798;2022-08-18T13:04:38;6.10;;;5.60;;
2760;SDS011;15420;48.636;9.798;2022-08-18T13:07:04;7.47;;;6.50;;
2760;SDS011;15420;48.636;9.798;2022-08-18T13:09:32;6.33;;;5.83;;
2760;SDS011;15420;48.636;9.798;2022-08-18T13:12:00;6.30;;;5.80;;
2760;SDS011;15420;48.636;9.798;2022-08-18T13:14:26;5.90;;;5.50;;
2760;SDS011;15420;48.636;9.798;2022-08-18T13:16:52;5.57;;;5.17;;
2760;SDS011;15420;48.636;9.798;2022-08-18T13:19:19;7.10;;;5.53;;
2760;SDS011;15420;48.636;9.798;2022-08-18T13:21:45;6.90;;;5.80;;
2760;SDS011;15420;48.636;9.798;2022-08-18T13:24:14;6.70;;;6.17;;
2760;SDS011;15420;48.636;9.798;2022-08-18T13:26:44;5.90;;;5.43;;
2760;SDS011;15420;48.636;9.798;2022-08-18T13:29:12;6.33;;;5.80;;
2760;SDS011;15420;48.636;9.798;2022-08-18T13:31:40;6.00;;;5.40;;
2760;SDS011;15420;48.636;9.798;2022-08-18T13:34:06;6.10;;;5.63;;
2760;SDS011;15420;48.636;9.798;2022-08-18T13:36:33;6.30;;;5.80;;
2760;SDS011;15420;48.636;9.798;2022-08-18T13:39:20;6.80;;;6.30;;
2760;SDS011;15420;48.636;9.798;2022-08-18T13:41:51;5.83;;;5.43;;
2760;SDS011;15420;48.636;9.798;2022-08-18T13:44:20;5.90;;;5.30;;
2760;SDS011;15420;48.636;9.798;2022-08-18T13:46:49;7.10;;;6.50;;
2760;SDS011;15420;48.636;9.798;2022-08-18T13:49:19;6.07;;;5.57;;
2760;SDS011;15420;48.636;9.798;2022-08-18T13:51:51;5.70;;;5.30;;
2760;SDS011;15420;48.636;9.798;2022-08-18T13:54:27;5.90;;;5.50;;
2760;SDS011;15420;48.636;9.798;2022-08-18T13:56:56;6.60;;;6.10;;
2760;SDS011;15420;48.636;9.798;2022-08-18T13:59:29;6.20;;;5.50;;
2760;SDS011;15420;48.636;9.798;2022-08-18T14:01:57;7.00;;;6.40;;
2760;SDS011;15420;48.636;9.798;2022-08-18T14:04:27;6.80;;;6.20;;
2760;SDS011;15420;48.636;9.798;2022-08-18T14:06:53;5.57;;;5.17;;
2760;SDS011;15420;48.636;9.798;2022-08-18T14:09:20;5.63;;;5.20;;
2760;SDS011;15420;48.636;9.798;2022-08-18T14:11:46;5.03;;;4.53;;
2760;SDS011;15420;48.636;9.798;2022-08-18T14:14:13;5.43;;;4.97;;
2760;SDS011;15420;48.636;9.798;2022-08-18T14:16:39;6.40;;;5.30;;
2760;SDS011;15420;48.636;9.798;2022-08-18T14:19:08;5.40;;;5.00;;
2760;SDS011;15420;48.636;9.798;2022-08-18T14:21:53;5.35;;;4.95;;
2760;SDS011;15420;48.636;9.798;2022-08-18T14:24:39;5.07;;;4.78;;
2760;SDS011;15420;48.636;9.798;2022-08-18T14:27:29;5.70;;;5.20;;
2760;SDS011;15420;48.636;9.798;2022-08-18T14:30:03;5.53;;;5.13;;
2760;SDS011;15420;48.636;9.798;2022-08-18T14:32:32;5.68;;;5.22;;
2760;SDS011;15420;48.636;9.798;2022-08-18T14:35:01;6.25;;;5.75;;
2760;SDS011;15420;48.636;9.798;2022-08-18T14:37:30;5.45;;;5.05;;
2760;SDS011;15420;48.636;9.798;2022-08-18T14:40:01;6.13;;;5.72;;
2760;SDS011;15420;48.636;9.798;2022-08-18T14:42:31;6.77;;;6.17;;
2760;SDS011;15420;48.636;9.798;2022-08-18T14:44:58;7.30;;;6.70;;
2760;SDS011;15420;48.636;9.798;2022-08-18T14:47:24;6.20;;;5.80;;
2760;SDS011;15420;48.636;9.798;2022-08-18T14:49:53;6.30;;;5.90;;
2760;SDS011;15420;48.636;9.798;2022-08-18T14:52:21;6.47;;;5.87;;
2760;SDS011;15420;48.636;9.798;2022-08-18T14:54:48;6.73;;;6.10;;
2760;SDS011;15420;48.636;9.798;2022-08-18T14:57:14;6.70;;;6.00;;
2760;SDS011;15420;48.636;9.798;2022-08-18T14:59:41;6.77;;;6.17;;
2760;SDS011;15420;48.636;9.798;2022-08-18T15:02:09;6.30;;;5.77;;
2760;SDS011;15420;48.636;9.798;2022-08-18T15:04:37;6.87;;;6.27;;
2760;SDS011;15420;48.636;9.798;2022-08-18T15:07:04;8.30;;;6.47;;
2760;SDS011;15420;48.636;9.798;2022-08-18T15:09:32;6.20;;;5.70;;
2760;SDS011;15420;48.636;9.798;2022-08-18T15:12:00;6.97;;;6.30;;
2760;SDS011;15420;48.636;9.798;2022-08-18T15:14:30;6.87;;;6.33;;
2760;SDS011;15420;48.636;9.798;2022-08-18T15:16:58;6.70;;;6.20;;
2760;SDS011;15420;48.636;9.798;2022-08-18T15:19:33;6.83;;;6.23;;
2760;SDS011;15420;48.636;9.798;2022-08-18T15:21:59;7.20;;;6.60;;
2760;SDS011;15420;48.636;9.798;2022-08-18T15:24:44;8.13;;;6.50;;
2760;SDS011;15420;48.636;9.798;2022-08-18T15:27:32;7.07;;;6.10;;
2760;SDS011;15420;48.636;9.798;2022-08-18T15:30:10;7.27;;;6.37;;
2760;SDS011;15420;48.636;9.798;2022-08-18T15:32:43;6.73;;;6.10;;
2760;SDS011;15420;48.636;9.798;2022-08-18T15:35:13;7.20;;;6.50;;
2760;SDS011;15420;48.636;9.798;2022-08-18T15:37:43;7.00;;;6.03;;
2760;SDS011;15420;48.636;9.798;2022-08-18T15:40:14;6.27;;;5.77;;
2760;SDS011;15420;48.636;9.798;2022-08-18T15:42:43;10.27;;;6.30;;
2760;SDS011;15420;48.636;9.798;2022-08-18T15:45:13;6.70;;;6.20;;
2760;SDS011;15420;48.636;9.798;2022-08-18T15:47:49;7.90;;;6.30;;
2760;SDS011;15420;48.636;9.798;2022-08-18T15:50:19;6.93;;;6.23;;
2760;SDS011;15420;48.636;9.798;2022-08-18T15:52:47;7.00;;;6.47;;
2760;SDS011;15420;48.636;9.798;2022-08-18T15:55:18;7.60;;;7.00;;
2760;SDS011;15420;48.636;9.798;2022-08-18T15:57:48;7.30;;;6.60;;
2760;SDS011;15420;48.636;9.798;2022-08-18T16:00:15;11.33;;;6.53;;
2760;SDS011;15420;48.636;9.798;2022-08-18T16:03:03;6.70;;;6.07;;
2760;SDS011;15420;48.636;9.798;2022-08-18T16:05:35;6.90;;;6.30;;
2760;SDS011;15420;48.636;9.798;2022-08-18T16:08:05;6.80;;;6.20;;
2760;SDS011;15420;48.636;9.798;2022-08-18T16:10:35;7.07;;;6.47;;
2760;SDS011;15420;48.636;9.798;2022-08-18T16:13:02;6.67;;;6.10;;
2760;SDS011;15420;48.636;9.798;2022-08-18T16:15:35;6.07;;;5.47;;
2760;SDS011;15420;48.636;9.798;2022-08-18T16:18:03;6.57;;;5.97;;
2760;SDS011;15420;48.636;9.798;2022-08-18T16:20:30;7.10;;;6.50;;
2760;SDS011;15420;48.636;9.798;2022-08-18T16:22:57;6.77;;;6.17;;
2760;SDS011;15420;48.636;9.798;2022-08-18T16:25:24;7.00;;;6.33;;
2760;SDS011;15420;48.636;9.798;2022-08-18T16:27:53;7.20;;;6.40;;
2760;SDS011;15420;48.636;9.798;2022-08-18T16:30:26;7.37;;;6.70;;
2760;SDS011;15420;48.636;9.798;2022-08-18T16:32:53;6.90;;;6.30;;
2760;SDS011;15420;48.636;9.798;2022-08-18T16:35:25;9.07;;;8.27;;
2760;SDS011;15420;48.636;9.798;2022-08-18T16:37:51;8.27;;;7.57;;
2760;SDS011;15420;48.636;9.798;2022-08-18T16:40:20;8.23;;;7.40;;
2760;SDS011;15420;48.636;9.798;2022-08-18T16:42:48;7.10;;;6.00;;
2760;SDS011;15420;48.636;9.798;2022-08-18T16:45:23;7.40;;;6.80;;
2760;SDS011;15420;48.636;9.798;2022-08-18T16:47:53;7.27;;;6.40;;
2760;SDS011;15420;48.636;9.798;2022-08-18T16:50:19;6.97;;;6.37;;
2760;SDS011;15420;48.636;9.798;2022-08-18T16:52:47;11.20;;;6.93;;
2760;SDS011;15420;48.636;9.798;2022-08-18T16:55:13;7.27;;;6.43;;
2760;SDS011;15420;48.636;9.798;2022-08-18T16:57:40;7.07;;;6.47;;
2760;SDS011;15420;48.636;9.798;2022-08-18T17:00:26;7.80;;;7.10;;
2760;SDS011;15420;48.636;9.798;2022-08-18T17:03:15;7.07;;;6.47;;
2760;SDS011;15420;48.636;9.798;2022-08-18T17:06:01;7.63;;;6.93;;
2760;SDS011;15420;48.636;9.798;2022-08-18T17:08:30;7.13;;;6.40;;
2760;SDS011;15420;48.636;9.798;2022-08-18T17:10:58;8.03;;;7.27;;
2760;SDS011;15420;48.636;9.798;2022-08-18T17:13:34;7.93;;;7.23;;
2760;SDS011;15420;48.636;9.798;2022-08-18T17:16:01;7.80;;;7.20;;
2760;SDS011;15420;48.636;9.798;2022-08-18T17:18:30;8.00;;;7.33;;
2760;SDS011;15420;48.636;9.798;2022-08-18T17:21:00;8.67;;;7.87;;
2760;SDS011;15420;48.636;9.798;2022-08-18T17:23:28;8.93;;;8.03;;
2760;SDS011;15420;48.636;9.798;2022-08-18T17:25:55;7.80;;;7.10;;
2760;SDS011;15420;48.636;9.798;2022-08-18T17:28:21;7.97;;;7.13;;
2760;SDS011;15420;48.636;9.798;2022-08-18T17:30:58;7.53;;;6.83;;
2760;SDS011;15420;48.636;9.798;2022-08-18T17:33:28;7.43;;;6.73;;
2760;SDS011;15420;48.636;9.798;2022-08-18T17:36:02;8.10;;;7.40;;
2760;SDS011;15420;48.636;9.798;2022-08-18T17:38:43;7.23;;;6.53;;
2760;SDS011;15420;48.636;9.798;2022-08-18T17:41:17;7.90;;;7.20;;
2760;SDS011;15420;48.636;9.798;2022-08-18T17:43:45;8.30;;;7.50;;
2760;SDS011;15420;48.636;9.798;2022-08-18T17:46:19;7.13;;;6.53;;
2760;SDS011;15420;48.636;9.798;2022-08-18T17:56:46;8.97;;;6.90;;
2760;SDS011;15420;48.636;9.798;2022-08-18T17:59:34;7.60;;;6.90;;
2760;SDS011;15420;48.636;9.798;2022-08-18T18:02:09;7.73;;;6.80;;
2760;SDS011;15420;48.636;9.798;2022-08-18T18:04:55;8.80;;;7.90;;
2760;SDS011;15420;48.636;9.798;2022-08-18T18:07:27;8.27;;;7.57;;
2760;SDS011;15420;48.636;9.798;2022-08-18T18:12:21;7.87;;;7.13;;
2760;SDS011;15420;48.636;9.798;2022-08-18T18:14:50;8.80;;;7.10;;
2760;SDS011;15420;48.636;9.798;2022-08-18T18:17:26;8.13;;;7.30;;
2760;SDS011;15420;48.636;9.798;2022-08-18T18:20:00;7.40;;;6.70;;
2760;SDS011;15420;48.636;9.798;2022-08-18T18:22:38;7.63;;;6.90;;
2760;SDS011;15420;48.636;9.798;2022-08-18T18:25:11;8.10;;;7.40;;
2760;SDS011;15420;48.636;9.798;2022-08-18T18:27:54;8.60;;;7.67;;
2760;SDS011;15420;48.636;9.798;2022-08-18T18:30:21;8.43;;;7.13;;
2760;SDS011;15420;48.636;9.798;2022-08-18T18:33:04;8.80;;;8.00;;